sensor_id;sensor_type;location;lat;lon;timestamp;pressure;altitude;pressure_sealevel;temperature;humidity
12666;BME280;58531;59.050;17.416;2023-03-16T00:02:19;100499.81;;;-5.41;100.00
12666;BME280;58531;59.050;17.416;2023-03-16T00:04:46;100501.75;;;-5.38;100.00
12666;BME280;58531;59.050;17.416;2023-03-16T00:07:13;100507.38;;;-5.36;100.00
12666;BME280;58531;59.050;17.416;2023-03-16T00:09:42;100512.91;;;-5.38;100.00
12666;BME280;58531;59.050;17.416;2023-03-16T00:12:12;100516.50;;;-5.42;100.00
12666;BME280;58531;59.050;17.416;2023-03-16T00:14:40;100517.59;;;-5.43;100.00
12666;BME280;58531;59.050;17.416;2023-03-16T00:17:08;100523.47;;;-5.46;100.00
12666;BME280;58531;59.050;17.416;2023-03-16T00:19:43;100534.41;;;-5.53;100.00
12666;BME280;58531;59.050;17.416;2023-03-16T00:22:11;100527.59;;;-5.57;100.00
12666;BME280;58531;59.050;17.416;2023-03-16T00:24:39;100537.56;;;-5.59;100.00
12666;BME280;58531;59.050;17.416;2023-03-16T00:27:09;100535.63;;;-5.62;100.00
12666;BME280;58531;59.050;17.416;2023-03-16T00:29:41;100533.81;;;-5.62;100.00
12666;BME280;58531;59.050;17.416;2023-03-16T00:32:15;100538.22;;;-5.62;100.00
12666;BME280;58531;59.050;17.416;2023-03-16T00:34:42;100551.91;;;-5.65;100.00
12666;BME280;58531;59.050;17.416;2023-03-16T00:37:10;100549.09;;;-5.72;100.00
12666;BME280;58531;59.050;17.416;2023-03-16T00:39:38;100553.41;;;-5.76;100.00
12666;BME280;58531;59.050;17.416;2023-03-16T00:42:06;100554.50;;;-5.77;100.00
12666;BME280;58531;59.050;17.416;2023-03-16T00:44:35;100563.00;;;-5.80;100.00
12666;BME280;58531;59.050;17.416;2023-03-16T00:47:02;100561.03;;;-5.83;100.00
12666;BME280;58531;59.050;17.416;2023-03-16T00:49:29;100565.50;;;-5.83;100.00
12666;BME280;58531;59.050;17.416;2023-03-16T00:51:59;100563.56;;;-5.86;100.00
12666;BME280;58531;59.050;17.416;2023-03-16T00:54:27;100572.78;;;-5.89;100.00
12666;BME280;58531;59.050;17.416;2023-03-16T00:56:54;100567.78;;;-5.94;100.00
12666;BME280;58531;59.050;17.416;2023-03-16T00:59:20;100577.31;;;-5.98;100.00
12666;BME280;58531;59.050;17.416;2023-03-16T01:01:49;100577.53;;;-6.03;100.00
12666;BME280;58531;59.050;17.416;2023-03-16T01:04:16;100576.03;;;-6.04;100.00
12666;BME280;58531;59.050;17.416;2023-03-16T01:06:43;100584.91;;;-6.05;100.00
12666;BME280;58531;59.050;17.416;2023-03-16T01:09:11;100590.19;;;-6.01;100.00
12666;BME280;58531;59.050;17.416;2023-03-16T01:11:39;100593.22;;;-5.99;100.00
12666;BME280;58531;59.050;17.416;2023-03-16T01:14:07;100594.00;;;-5.99;100.00
12666;BME280;58531;59.050;17.416;2023-03-16T01:16:34;100599.06;;;-6.02;100.00
12666;BME280;58531;59.050;17.416;2023-03-16T01:19:03;100602.22;;;-5.97;100.00
12666;BME280;58531;59.050;17.416;2023-03-16T01:21:30;100616.31;;;-5.98;100.00
12666;BME280;58531;59.050;17.416;2023-03-16T01:23:58;100611.31;;;-6.03;100.00
12666;BME280;58531;59.050;17.416;2023-03-16T01:26:25;100613.69;;;-6.10;100.00
12666;BME280;58531;59.050;17.416;2023-03-16T01:28:52;100618.03;;;-6.14;100.00
12666;BME280;58531;59.050;17.416;2023-03-16T01:31:20;100624.19;;;-6.18;100.00
12666;BME280;58531;59.050;17.416;2023-03-16T01:33:47;100626.03;;;-6.19;100.00
12666;BME280;58531;59.050;17.416;2023-03-16T01:36:17;100623.44;;;-6.19;100.00
12666;BME280;58531;59.050;17.416;2023-03-16T01:38:44;100627.53;;;-6.18;100.00
12666;BME280;58531;59.050;17.416;2023-03-16T01:41:11;100623.75;;;-6.20;100.00
12666;BME280;58531;59.050;17.416;2023-03-16T01:43:40;100632.94;;;-6.23;100.00
12666;BME280;58531;59.050;17.416;2023-03-16T01:46:18;100640.31;;;-6.13;100.00
12666;BME280;58531;59.050;17.416;2023-03-16T01:48:51;100642.81;;;-6.16;100.00
12666;BME280;58531;59.050;17.416;2023-03-16T01:51:23;100648.75;;;-6.16;100.00
12666;BME280;58531;59.050;17.416;2023-03-16T01:53:55;100648.47;;;-6.14;100.00
12666;BME280;58531;59.050;17.416;2023-03-16T01:56:25;100646.19;;;-6.04;100.00
12666;BME280;58531;59.050;17.416;2023-03-16T01:58:55;100654.09;;;-6.00;100.00
12666;BME280;58531;59.050;17.416;2023-03-16T02:01:24;100660.28;;;-5.93;100.00
12666;BME280;58531;59.050;17.416;2023-03-16T02:03:54;100667.53;;;-5.75;100.00
12666;BME280;58531;59.050;17.416;2023-03-16T02:06:24;100668.84;;;-5.80;100.00
12666;BME280;58531;59.050;17.416;2023-03-16T02:08:54;100664.81;;;-5.54;100.00
12666;BME280;58531;59.050;17.416;2023-03-16T02:11:22;100678.03;;;-5.47;100.00
12666;BME280;58531;59.050;17.416;2023-03-16T02:13:49;100669.56;;;-5.44;100.00
12666;BME280;58531;59.050;17.416;2023-03-16T02:16:18;100683.44;;;-5.40;100.00
12666;BME280;58531;59.050;17.416;2023-03-16T02:18:47;100684.06;;;-5.31;100.00
12666;BME280;58531;59.050;17.416;2023-03-16T02:21:19;100694.59;;;-5.16;100.00
12666;BME280;58531;59.050;17.416;2023-03-16T02:23:51;100694.44;;;-5.07;100.00
12666;BME280;58531;59.050;17.416;2023-03-16T02:26:24;100698.78;;;-4.99;100.00
12666;BME280;58531;59.050;17.416;2023-03-16T02:29:05;100711.13;;;-4.84;100.00
12666;BME280;58531;59.050;17.416;2023-03-16T02:31:39;100701.00;;;-4.74;100.00
12666;BME280;58531;59.050;17.416;2023-03-16T02:34:07;100694.66;;;-4.61;100.00
12666;BME280;58531;59.050;17.416;2023-03-16T02:36:35;100700.03;;;-4.54;100.00
12666;BME280;58531;59.050;17.416;2023-03-16T02:39:03;100698.72;;;-4.48;100.00
12666;BME280;58531;59.050;17.416;2023-03-16T02:41:31;100698.91;;;-4.41;100.00
12666;BME280;58531;59.050;17.416;2023-03-16T02:44:03;100702.34;;;-4.37;100.00
12666;BME280;58531;59.050;17.416;2023-03-16T02:46:35;100696.06;;;-4.36;100.00
12666;BME280;58531;59.050;17.416;2023-03-16T02:49:07;100705.91;;;-4.30;100.00
12666;BME280;58531;59.050;17.416;2023-03-16T02:51:37;100701.72;;;-4.19;100.00
12666;BME280;58531;59.050;17.416;2023-03-16T02:54:04;100716.69;;;-4.16;100.00
12666;BME280;58531;59.050;17.416;2023-03-16T02:56:31;100715.28;;;-4.13;100.00
12666;BME280;58531;59.050;17.416;2023-03-16T02:58:57;100718.63;;;-4.13;100.00
12666;BME280;58531;59.050;17.416;2023-03-16T03:01:24;100731.00;;;-4.10;100.00
12666;BME280;58531;59.050;17.416;2023-03-16T03:03:51;100728.41;;;-4.10;100.00
12666;BME280;58531;59.050;17.416;2023-03-16T03:06:20;100739.84;;;-4.14;100.00
12666;BME280;58531;59.050;17.416;2023-03-16T03:08:49;100740.50;;;-4.17;100.00
12666;BME280;58531;59.050;17.416;2023-03-16T03:11:17;100745.63;;;-4.21;100.00
12666;BME280;58531;59.050;17.416;2023-03-16T03:13:44;100746.66;;;-4.10;100.00
12666;BME280;58531;59.050;17.416;2023-03-16T03:16:11;100745.31;;;-4.04;100.00
12666;BME280;58531;59.050;17.416;2023-03-16T03:18:38;100755.94;;;-3.97;100.00
12666;BME280;58531;59.050;17.416;2023-03-16T03:21:05;100756.78;;;-3.93;100.00
12666;BME280;58531;59.050;17.416;2023-03-16T03:23:34;100762.44;;;-3.91;100.00
12666;BME280;58531;59.050;17.416;2023-03-16T03:26:01;100761.75;;;-3.88;100.00
12666;BME280;58531;59.050;17.416;2023-03-16T03:28:29;100772.19;;;-3.88;99.93
12666;BME280;58531;59.050;17.416;2023-03-16T03:30:59;100767.84;;;-3.84;98.60
12666;BME280;58531;59.050;17.416;2023-03-16T03:33:27;100775.22;;;-3.86;98.68
12666;BME280;58531;59.050;17.416;2023-03-16T03:35:55;100783.81;;;-3.85;98.26
12666;BME280;58531;59.050;17.416;2023-03-16T03:38:22;100780.69;;;-3.91;98.51
12666;BME280;58531;59.050;17.416;2023-03-16T03:40:51;100776.13;;;-3.94;97.56
12666;BME280;58531;59.050;17.416;2023-03-16T03:43:18;100779.31;;;-4.00;97.61
12666;BME280;58531;59.050;17.416;2023-03-16T03:45:45;100786.38;;;-4.01;97.61
12666;BME280;58531;59.050;17.416;2023-03-16T03:48:12;100781.63;;;-4.11;98.45
12666;BME280;58531;59.050;17.416;2023-03-16T03:50:39;100781.78;;;-4.19;98.24
12666;BME280;58531;59.050;17.416;2023-03-16T03:53:06;100793.53;;;-4.25;99.14
12666;BME280;58531;59.050;17.416;2023-03-16T03:55:33;100795.94;;;-4.32;100.00
12666;BME280;58531;59.050;17.416;2023-03-16T03:58:01;100793.69;;;-4.34;99.58
12666;BME280;58531;59.050;17.416;2023-03-16T04:00:28;100803.69;;;-4.36;99.31
12666;BME280;58531;59.050;17.416;2023-03-16T04:02:55;100810.97;;;-4.41;99.44
12666;BME280;58531;59.050;17.416;2023-03-16T04:05:22;100808.81;;;-4.51;99.74
12666;BME280;58531;59.050;17.416;2023-03-16T04:07:52;100811.75;;;-4.53;100.00
12666;BME280;58531;59.050;17.416;2023-03-16T04:10:22;100817.28;;;-4.54;99.27
12666;BME280;58531;59.050;17.416;2023-03-16T04:12:49;100805.03;;;-4.66;99.28
12666;BME280;58531;59.050;17.416;2023-03-16T04:15:18;100819.59;;;-4.76;99.99
12666;BME280;58531;59.050;17.416;2023-03-16T04:17:46;100822.75;;;-4.83;100.00
12666;BME280;58531;59.050;17.416;2023-03-16T04:20:14;100834.03;;;-4.91;100.00
12666;BME280;58531;59.050;17.416;2023-03-16T04:22:44;100830.69;;;-4.91;100.00
12666;BME280;58531;59.050;17.416;2023-03-16T04:25:12;100836.56;;;-4.94;100.00
12666;BME280;58531;59.050;17.416;2023-03-16T04:27:40;100833.28;;;-5.03;100.00
12666;BME280;58531;59.050;17.416;2023-03-16T04:30:10;100842.84;;;-5.07;100.00
12666;BME280;58531;59.050;17.416;2023-03-16T04:32:39;100836.97;;;-5.16;100.00
12666;BME280;58531;59.050;17.416;2023-03-16T04:35:07;100841.97;;;-5.11;100.00
12666;BME280;58531;59.050;17.416;2023-03-16T04:37:34;100847.59;;;-5.21;100.00
12666;BME280;58531;59.050;17.416;2023-03-16T04:40:02;100845.44;;;-5.19;100.00
12666;BME280;58531;59.050;17.416;2023-03-16T04:42:36;100854.31;;;-5.20;100.00
12666;BME280;58531;59.050;17.416;2023-03-16T04:45:03;100861.47;;;-5.17;100.00
12666;BME280;58531;59.050;17.416;2023-03-16T04:47:30;100858.44;;;-5.19;100.00
12666;BME280;58531;59.050;17.416;2023-03-16T04:50:00;100862.97;;;-5.28;100.00
12666;BME280;58531;59.050;17.416;2023-03-16T04:52:30;100860.13;;;-5.35;100.00
12666;BME280;58531;59.050;17.416;2023-03-16T04:54:57;100867.94;;;-5.35;100.00
12666;BME280;58531;59.050;17.416;2023-03-16T04:57:24;100867.31;;;-5.32;100.00
12666;BME280;58531;59.050;17.416;2023-03-16T04:59:51;100872.16;;;-5.43;100.00
12666;BME280;58531;59.050;17.416;2023-03-16T05:02:18;100874.97;;;-5.48;100.00
12666;BME280;58531;59.050;17.416;2023-03-16T05:04:45;100875.50;;;-5.54;100.00
12666;BME280;58531;59.050;17.416;2023-03-16T05:07:14;100880.03;;;-5.63;100.00
12666;BME280;58531;59.050;17.416;2023-03-16T05:09:41;100873.94;;;-5.67;100.00
12666;BME280;58531;59.050;17.416;2023-03-16T05:12:08;100886.31;;;-5.64;100.00
12666;BME280;58531;59.050;17.416;2023-03-16T05:14:35;100890.88;;;-5.61;100.00
12666;BME280;58531;59.050;17.416;2023-03-16T05:17:03;100896.19;;;-5.58;100.00
12666;BME280;58531;59.050;17.416;2023-03-16T05:19:30;100904.31;;;-5.59;100.00
12666;BME280;58531;59.050;17.416;2023-03-16T05:21:57;100913.19;;;-5.60;100.00
12666;BME280;58531;59.050;17.416;2023-03-16T05:24:25;100912.81;;;-5.50;100.00
12666;BME280;58531;59.050;17.416;2023-03-16T05:26:52;100914.56;;;-5.42;100.00
12666;BME280;58531;59.050;17.416;2023-03-16T05:29:19;100916.72;;;-5.44;100.00
12666;BME280;58531;59.050;17.416;2023-03-16T05:31:46;100927.56;;;-5.42;100.00
12666;BME280;58531;59.050;17.416;2023-03-16T05:34:14;100931.69;;;-5.41;100.00
12666;BME280;58531;59.050;17.416;2023-03-16T05:36:41;100931.50;;;-5.36;100.00
12666;BME280;58531;59.050;17.416;2023-03-16T05:39:09;100936.47;;;-5.31;100.00
12666;BME280;58531;59.050;17.416;2023-03-16T05:41:38;100937.13;;;-5.34;100.00
12666;BME280;58531;59.050;17.416;2023-03-16T05:44:06;100942.38;;;-5.22;100.00
12666;BME280;58531;59.050;17.416;2023-03-16T05:46:33;100946.31;;;-5.04;100.00
12666;BME280;58531;59.050;17.416;2023-03-16T05:49:00;100944.97;;;-4.78;100.00
12666;BME280;58531;59.050;17.416;2023-03-16T05:51:28;100952.91;;;-4.39;99.79
12666;BME280;58531;59.050;17.416;2023-03-16T05:53:54;100958.84;;;-3.20;93.10
12666;BME280;58531;59.050;17.416;2023-03-16T05:56:22;100966.69;;;-1.59;86.34
12666;BME280;58531;59.050;17.416;2023-03-16T05:58:52;100979.97;;;-0.43;77.74
12666;BME280;58531;59.050;17.416;2023-03-16T06:01:20;100977.09;;;-0.83;75.11
12666;BME280;58531;59.050;17.416;2023-03-16T06:03:48;100981.16;;;-0.63;74.46
12666;BME280;58531;59.050;17.416;2023-03-16T06:06:16;100989.06;;;-0.37;74.43
12666;BME280;58531;59.050;17.416;2023-03-16T06:08:43;100989.81;;;0.77;70.16
12666;BME280;58531;59.050;17.416;2023-03-16T06:11:10;100990.97;;;1.63;66.04
12666;BME280;58531;59.050;17.416;2023-03-16T06:13:37;100995.84;;;2.15;64.64
12666;BME280;58531;59.050;17.416;2023-03-16T06:16:07;101003.16;;;2.49;61.83
12666;BME280;58531;59.050;17.416;2023-03-16T06:18:35;101002.69;;;2.36;59.76
12666;BME280;58531;59.050;17.416;2023-03-16T06:21:04;101006.69;;;1.52;62.18
12666;BME280;58531;59.050;17.416;2023-03-16T06:23:32;101010.16;;;1.63;61.95
12666;BME280;58531;59.050;17.416;2023-03-16T06:25:59;101016.66;;;1.33;63.56
12666;BME280;58531;59.050;17.416;2023-03-16T06:28:26;101019.50;;;1.14;64.33
12666;BME280;58531;59.050;17.416;2023-03-16T06:30:54;101017.28;;;0.83;64.76
12666;BME280;58531;59.050;17.416;2023-03-16T06:33:22;101021.06;;;0.23;67.85
12666;BME280;58531;59.050;17.416;2023-03-16T06:35:49;101026.50;;;-0.63;69.76
12666;BME280;58531;59.050;17.416;2023-03-16T06:38:17;101030.47;;;-0.27;70.12
12666;BME280;58531;59.050;17.416;2023-03-16T06:40:44;101034.69;;;-0.42;68.45
12666;BME280;58531;59.050;17.416;2023-03-16T06:43:10;101031.72;;;0.34;67.25
12666;BME280;58531;59.050;17.416;2023-03-16T06:45:37;101028.91;;;0.49;64.41
12666;BME280;58531;59.050;17.416;2023-03-16T06:48:05;101038.72;;;0.85;62.64
12666;BME280;58531;59.050;17.416;2023-03-16T06:50:35;101044.09;;;1.32;61.39
12666;BME280;58531;59.050;17.416;2023-03-16T06:53:02;101046.72;;;1.32;60.98
12666;BME280;58531;59.050;17.416;2023-03-16T06:55:29;101057.34;;;2.43;59.46
12666;BME280;58531;59.050;17.416;2023-03-16T06:57:56;101064.59;;;2.67;56.70
12666;BME280;58531;59.050;17.416;2023-03-16T07:00:23;101069.72;;;4.11;52.29
12666;BME280;58531;59.050;17.416;2023-03-16T07:02:50;101072.78;;;5.13;50.08
12666;BME280;58531;59.050;17.416;2023-03-16T07:05:17;101081.78;;;4.33;51.20
12666;BME280;58531;59.050;17.416;2023-03-16T07:07:45;101083.06;;;5.00;50.93
12666;BME280;58531;59.050;17.416;2023-03-16T07:10:14;101087.91;;;5.77;45.41
12666;BME280;58531;59.050;17.416;2023-03-16T07:12:42;101086.22;;;5.46;48.31
12666;BME280;58531;59.050;17.416;2023-03-16T07:15:09;101086.13;;;6.11;45.98
12666;BME280;58531;59.050;17.416;2023-03-16T07:17:36;101089.75;;;6.64;44.04
12666;BME280;58531;59.050;17.416;2023-03-16T07:20:04;101090.16;;;6.63;44.65
12666;BME280;58531;59.050;17.416;2023-03-16T07:22:34;101098.75;;;7.03;43.72
12666;BME280;58531;59.050;17.416;2023-03-16T07:25:03;101107.97;;;8.01;41.07
12666;BME280;58531;59.050;17.416;2023-03-16T07:27:30;101111.78;;;7.24;39.96
12666;BME280;58531;59.050;17.416;2023-03-16T07:29:57;101107.91;;;5.88;43.23
12666;BME280;58531;59.050;17.416;2023-03-16T07:32:25;101115.72;;;3.34;48.83
12666;BME280;58531;59.050;17.416;2023-03-16T07:34:52;101118.69;;;2.40;52.65
12666;BME280;58531;59.050;17.416;2023-03-16T07:37:19;101127.00;;;1.52;56.67
12666;BME280;58531;59.050;17.416;2023-03-16T07:39:46;101123.50;;;1.08;59.16
12666;BME280;58531;59.050;17.416;2023-03-16T07:42:14;101125.22;;;0.94;58.87
12666;BME280;58531;59.050;17.416;2023-03-16T07:44:41;101120.44;;;0.73;59.59
12666;BME280;58531;59.050;17.416;2023-03-16T07:47:11;101136.16;;;0.70;59.77
12666;BME280;58531;59.050;17.416;2023-03-16T07:49:38;101138.25;;;0.57;59.69
12666;BME280;58531;59.050;17.416;2023-03-16T07:52:06;101135.25;;;0.59;59.27
12666;BME280;58531;59.050;17.416;2023-03-16T07:54:33;101146.53;;;0.59;59.48
12666;BME280;58531;59.050;17.416;2023-03-16T07:57:00;101138.91;;;0.51;59.63
12666;BME280;58531;59.050;17.416;2023-03-16T07:59:29;101144.31;;;0.61;59.95
12666;BME280;58531;59.050;17.416;2023-03-16T08:01:56;101145.81;;;0.62;60.58
12666;BME280;58531;59.050;17.416;2023-03-16T08:04:23;101154.16;;;0.68;60.12
12666;BME280;58531;59.050;17.416;2023-03-16T08:06:50;101157.16;;;0.66;58.58
12666;BME280;58531;59.050;17.416;2023-03-16T08:09:24;101158.34;;;0.46;59.24
12666;BME280;58531;59.050;17.416;2023-03-16T08:11:51;101166.44;;;0.60;60.99
12666;BME280;58531;59.050;17.416;2023-03-16T08:14:17;101162.84;;;1.01;60.83
12666;BME280;58531;59.050;17.416;2023-03-16T08:16:46;101165.19;;;1.06;58.09
12666;BME280;58531;59.050;17.416;2023-03-16T08:19:13;101167.38;;;1.01;57.72
12666;BME280;58531;59.050;17.416;2023-03-16T08:21:42;101165.09;;;0.99;57.93
12666;BME280;58531;59.050;17.416;2023-03-16T08:24:09;101162.06;;;0.97;58.40
12666;BME280;58531;59.050;17.416;2023-03-16T08:26:35;101166.78;;;1.14;58.19
12666;BME280;58531;59.050;17.416;2023-03-16T08:29:03;101163.75;;;1.12;57.73
12666;BME280;58531;59.050;17.416;2023-03-16T08:31:30;101173.09;;;1.10;57.20
12666;BME280;58531;59.050;17.416;2023-03-16T08:34:01;101178.44;;;0.87;58.23
12666;BME280;58531;59.050;17.416;2023-03-16T08:36:28;101175.47;;;0.89;57.56
12666;BME280;58531;59.050;17.416;2023-03-16T08:38:56;101179.84;;;0.81;58.04
12666;BME280;58531;59.050;17.416;2023-03-16T08:41:23;101187.91;;;0.92;58.36
12666;BME280;58531;59.050;17.416;2023-03-16T08:43:49;101196.19;;;0.94;57.54
12666;BME280;58531;59.050;17.416;2023-03-16T08:46:17;101196.69;;;1.03;58.14
12666;BME280;58531;59.050;17.416;2023-03-16T08:48:44;101209.13;;;1.06;58.50
12666;BME280;58531;59.050;17.416;2023-03-16T08:51:12;101213.84;;;0.93;58.00
12666;BME280;58531;59.050;17.416;2023-03-16T08:53:39;101221.41;;;0.98;58.06
12666;BME280;58531;59.050;17.416;2023-03-16T08:56:07;101223.03;;;1.06;58.81
12666;BME280;58531;59.050;17.416;2023-03-16T08:58:37;101223.22;;;1.20;59.12
12666;BME280;58531;59.050;17.416;2023-03-16T09:01:06;101228.78;;;1.15;59.02
12666;BME280;58531;59.050;17.416;2023-03-16T09:03:34;101227.13;;;1.33;57.44
12666;BME280;58531;59.050;17.416;2023-03-16T09:06:02;101239.31;;;1.44;57.18
12666;BME280;58531;59.050;17.416;2023-03-16T09:08:31;101235.47;;;1.38;57.88
12666;BME280;58531;59.050;17.416;2023-03-16T09:10:59;101242.47;;;1.57;57.32
12666;BME280;58531;59.050;17.416;2023-03-16T09:13:27;101251.47;;;1.56;56.96
12666;BME280;58531;59.050;17.416;2023-03-16T09:15:54;101246.03;;;1.42;56.96
12666;BME280;58531;59.050;17.416;2023-03-16T09:18:21;101253.63;;;1.47;57.63
12666;BME280;58531;59.050;17.416;2023-03-16T09:20:48;101252.28;;;1.60;56.44
12666;BME280;58531;59.050;17.416;2023-03-16T09:23:15;101241.91;;;1.74;56.17
12666;BME280;58531;59.050;17.416;2023-03-16T09:25:44;101253.25;;;1.78;56.03
12666;BME280;58531;59.050;17.416;2023-03-16T09:28:11;101256.53;;;1.68;57.46
12666;BME280;58531;59.050;17.416;2023-03-16T09:30:38;101254.53;;;1.61;56.54
12666;BME280;58531;59.050;17.416;2023-03-16T09:33:05;101264.00;;;1.66;56.89
12666;BME280;58531;59.050;17.416;2023-03-16T09:35:32;101263.03;;;1.81;58.20
12666;BME280;58531;59.050;17.416;2023-03-16T09:37:59;101260.88;;;1.90;55.86
12666;BME280;58531;59.050;17.416;2023-03-16T09:40:27;101260.94;;;1.93;56.67
12666;BME280;58531;59.050;17.416;2023-03-16T09:43:05;101280.03;;;2.20;57.06
12666;BME280;58531;59.050;17.416;2023-03-16T09:45:36;101270.94;;;2.14;55.30
12666;BME280;58531;59.050;17.416;2023-03-16T09:48:08;101278.50;;;2.19;55.35
12666;BME280;58531;59.050;17.416;2023-03-16T09:50:38;101279.41;;;2.33;56.61
12666;BME280;58531;59.050;17.416;2023-03-16T09:53:13;101280.88;;;2.30;55.62
12666;BME280;58531;59.050;17.416;2023-03-16T09:55:45;101289.22;;;2.36;55.51
12666;BME280;58531;59.050;17.416;2023-03-16T09:58:18;101286.19;;;2.34;55.41
12666;BME280;58531;59.050;17.416;2023-03-16T10:00:54;101291.59;;;2.48;54.80
12666;BME280;58531;59.050;17.416;2023-03-16T10:03:32;101292.84;;;2.64;53.95
12666;BME280;58531;59.050;17.416;2023-03-16T10:06:06;101297.06;;;2.72;54.81
12666;BME280;58531;59.050;17.416;2023-03-16T10:08:38;101294.78;;;2.71;53.09
12666;BME280;58531;59.050;17.416;2023-03-16T10:11:22;101306.88;;;2.75;54.10
12666;BME280;58531;59.050;17.416;2023-03-16T10:13:54;101300.44;;;2.69;54.40
12666;BME280;58531;59.050;17.416;2023-03-16T10:16:26;101312.16;;;2.75;53.83
12666;BME280;58531;59.050;17.416;2023-03-16T10:18:59;101316.78;;;2.89;56.04
12666;BME280;58531;59.050;17.416;2023-03-16T10:21:30;101321.41;;;3.02;55.41
12666;BME280;58531;59.050;17.416;2023-03-16T10:24:00;101312.47;;;3.17;54.27
12666;BME280;58531;59.050;17.416;2023-03-16T10:26:34;101324.53;;;3.18;51.81
12666;BME280;58531;59.050;17.416;2023-03-16T10:29:08;101321.78;;;3.04;52.68
12666;BME280;58531;59.050;17.416;2023-03-16T10:31:38;101330.91;;;3.14;51.44
12666;BME280;58531;59.050;17.416;2023-03-16T10:34:06;101330.50;;;3.08;52.16
12666;BME280;58531;59.050;17.416;2023-03-16T10:36:38;101325.59;;;3.10;53.25
12666;BME280;58531;59.050;17.416;2023-03-16T10:39:08;101319.94;;;3.12;52.11
12666;BME280;58531;59.050;17.416;2023-03-16T10:41:37;101335.72;;;3.01;52.49
12666;BME280;58531;59.050;17.416;2023-03-16T10:44:10;101336.44;;;2.95;51.97
12666;BME280;58531;59.050;17.416;2023-03-16T10:46:39;101328.50;;;2.95;51.89
12666;BME280;58531;59.050;17.416;2023-03-16T10:49:20;101332.03;;;3.13;50.71
12666;BME280;58531;59.050;17.416;2023-03-16T10:51:47;101339.91;;;3.09;50.99
12666;BME280;58531;59.050;17.416;2023-03-16T10:54:26;101341.78;;;3.05;50.78
12666;BME280;58531;59.050;17.416;2023-03-16T10:56:55;101341.78;;;3.05;51.32
12666;BME280;58531;59.050;17.416;2023-03-16T10:59:29;101356.19;;;3.18;51.40
12666;BME280;58531;59.050;17.416;2023-03-16T11:02:13;101354.03;;;3.34;50.58
12666;BME280;58531;59.050;17.416;2023-03-16T11:04:41;101360.09;;;3.38;51.10
12666;BME280;58531;59.050;17.416;2023-03-16T11:07:15;101354.81;;;3.35;51.55
12666;BME280;58531;59.050;17.416;2023-03-16T11:09:42;101358.63;;;3.44;51.17
12666;BME280;58531;59.050;17.416;2023-03-16T11:12:13;101358.22;;;3.42;50.42
12666;BME280;58531;59.050;17.416;2023-03-16T11:14:46;101360.56;;;3.50;51.74
12666;BME280;58531;59.050;17.416;2023-03-16T11:17:16;101355.00;;;3.69;51.83
12666;BME280;58531;59.050;17.416;2023-03-16T11:19:49;101355.38;;;3.68;53.17
12666;BME280;58531;59.050;17.416;2023-03-16T11:22:20;101360.34;;;3.80;50.11
12666;BME280;58531;59.050;17.416;2023-03-16T11:24:49;101364.03;;;3.68;49.61
12666;BME280;58531;59.050;17.416;2023-03-16T11:27:22;101356.81;;;3.58;50.26
12666;BME280;58531;59.050;17.416;2023-03-16T11:30:00;101367.06;;;3.67;49.31
12666;BME280;58531;59.050;17.416;2023-03-16T11:32:32;101370.09;;;3.72;50.80
12666;BME280;58531;59.050;17.416;2023-03-16T11:35:01;101373.94;;;3.82;49.51
12666;BME280;58531;59.050;17.416;2023-03-16T11:37:43;101373.19;;;3.85;50.84
12666;BME280;58531;59.050;17.416;2023-03-16T11:40:24;101382.19;;;3.70;48.64
12666;BME280;58531;59.050;17.416;2023-03-16T11:43:02;101381.47;;;3.80;48.94
12666;BME280;58531;59.050;17.416;2023-03-16T11:45:37;101383.78;;;3.88;48.79
12666;BME280;58531;59.050;17.416;2023-03-16T11:48:23;101380.63;;;3.62;47.18
12666;BME280;58531;59.050;17.416;2023-03-16T11:51:03;101386.28;;;3.64;48.92
12666;BME280;58531;59.050;17.416;2023-03-16T11:53:51;101385.22;;;3.72;47.18
12666;BME280;58531;59.050;17.416;2023-03-16T11:56:28;101386.00;;;3.76;47.46
12666;BME280;58531;59.050;17.416;2023-03-16T11:59:13;101401.03;;;3.68;47.79
12666;BME280;58531;59.050;17.416;2023-03-16T12:01:57;101389.66;;;3.61;48.86
12666;BME280;58531;59.050;17.416;2023-03-16T12:04:44;101395.69;;;3.61;47.22
12666;BME280;58531;59.050;17.416;2023-03-16T12:07:24;101401.84;;;3.83;50.41
12666;BME280;58531;59.050;17.416;2023-03-16T12:10:05;101388.28;;;3.88;46.85
12666;BME280;58531;59.050;17.416;2023-03-16T12:12:48;101395.13;;;3.92;45.96
12666;BME280;58531;59.050;17.416;2023-03-16T12:15:34;101392.84;;;3.91;46.43
12666;BME280;58531;59.050;17.416;2023-03-16T12:18:13;101396.25;;;3.95;46.14
12666;BME280;58531;59.050;17.416;2023-03-16T12:20:50;101400.47;;;4.06;45.92
12666;BME280;58531;59.050;17.416;2023-03-16T12:23:21;101406.09;;;3.98;44.51
12666;BME280;58531;59.050;17.416;2023-03-16T12:25:51;101399.66;;;3.99;45.93
12666;BME280;58531;59.050;17.416;2023-03-16T12:28:21;101405.34;;;4.01;47.02
12666;BME280;58531;59.050;17.416;2023-03-16T12:30:57;101406.50;;;4.03;46.68
12666;BME280;58531;59.050;17.416;2023-03-16T12:33:36;101405.84;;;4.24;47.41
12666;BME280;58531;59.050;17.416;2023-03-16T12:36:22;101402.81;;;4.22;45.02
12666;BME280;58531;59.050;17.416;2023-03-16T12:39:00;101411.13;;;4.24;44.67
12666;BME280;58531;59.050;17.416;2023-03-16T12:41:35;101406.25;;;4.33;44.57
12666;BME280;58531;59.050;17.416;2023-03-16T12:44:12;101404.00;;;4.49;44.89
12666;BME280;58531;59.050;17.416;2023-03-16T12:46:46;101408.94;;;4.54;43.55
12666;BME280;58531;59.050;17.416;2023-03-16T12:49:19;101411.94;;;4.49;42.58
12666;BME280;58531;59.050;17.416;2023-03-16T12:51:58;101415.66;;;4.30;42.91
12666;BME280;58531;59.050;17.416;2023-03-16T12:54:25;101411.06;;;4.13;43.34